createdAt,value
2023-02-27T00:02:05.151Z,40.41
2023-02-27T00:04:32.924Z,42.33
2023-02-27T00:07:00.388Z,42.41
2023-02-27T00:09:27.911Z,41.55
2023-02-27T00:11:56.791Z,42.09
2023-02-27T00:14:26.716Z,42.27
2023-02-27T00:16:54.377Z,40.73
2023-02-27T00:19:22.175Z,41.69
2023-02-27T00:21:49.886Z,42.53
2023-02-27T00:24:17.393Z,42.90
2023-02-27T00:26:45.350Z,43.99
2023-02-27T00:29:12.993Z,43.55
2023-02-27T00:31:40.430Z,43.69
2023-02-27T00:34:08.263Z,43.18
2023-02-27T00:36:36.737Z,42.48
2023-02-27T00:39:05.344Z,43.62
2023-02-27T00:41:33.088Z,43.31
2023-02-27T00:44:00.692Z,42.97
2023-02-27T00:46:28.095Z,43.29
2023-02-27T00:48:56.700Z,42.21
2023-02-27T00:51:25.305Z,42.72
2023-02-27T00:53:53.027Z,42.55
2023-02-27T00:56:20.851Z,42.16
2023-02-27T00:58:48.593Z,40.65
2023-02-27T01:01:16.258Z,40.00
2023-02-27T01:03:43.919Z,41.57
2023-02-27T01:06:11.463Z,41.55
2023-02-27T01:08:38.840Z,42.49
2023-02-27T01:11:06.704Z,40.24
2023-02-27T01:13:34.229Z,40.04
2023-02-27T01:16:01.810Z,38.70
2023-02-27T01:18:29.521Z,39.98
2023-02-27T01:20:57.154Z,41.09
2023-02-27T01:23:24.736Z,40.58
2023-02-27T01:25:52.529Z,39.50
2023-02-27T01:28:20.038Z,41.74
2023-02-27T01:30:48.006Z,40.47
2023-02-27T01:33:15.911Z,40.92
2023-02-27T01:35:43.459Z,41.46
2023-02-27T01:38:12.681Z,41.18
2023-02-27T01:40:42.162Z,40.60
2023-02-27T01:43:19.361Z,42.48
2023-02-27T01:45:48.775Z,40.91
2023-02-27T01:48:35.128Z,42.62
2023-02-27T01:51:19.560Z,41.60
2023-02-27T01:53:49.607Z,40.44
2023-02-27T01:56:26.166Z,41.00
2023-02-27T01:58:57.151Z,40.62
2023-02-27T02:01:25.947Z,39.03
2023-02-27T02:04:15.045Z,40.57
2023-02-27T02:06:47.207Z,42.09
2023-02-27T02:09:17.441Z,40.79
2023-02-27T02:11:46.085Z,41.78
2023-02-27T02:14:18.120Z,40.61
2023-02-27T02:17:06.799Z,41.56
2023-02-27T02:19:56.328Z,39.92
2023-02-27T02:22:51.535Z,41.36
2023-02-27T02:25:42.169Z,41.21
2023-02-27T02:28:33.305Z,40.95
2023-02-27T02:31:19.446Z,40.05
2023-02-27T02:34:03.237Z,39.74
2023-02-27T02:36:49.742Z,41.95
2023-02-27T02:39:33.809Z,42.32
2023-02-27T02:42:17.101Z,41.93
2023-02-27T02:44:59.803Z,41.81
2023-02-27T02:47:51.639Z,42.82
2023-02-27T02:50:39.638Z,41.11
2023-02-27T02:53:13.302Z,42.25
2023-02-27T02:55:48.285Z,41.99
2023-02-27T02:58:39.324Z,41.01
2023-02-27T03:01:14.139Z,41.81
2023-02-27T03:03:50.269Z,40.08
2023-02-27T03:06:22.704Z,41.18
2023-02-27T03:08:54.433Z,41.32
2023-02-27T03:11:24.960Z,41.23
2023-02-27T03:13:57.990Z,39.63
2023-02-27T03:16:46.439Z,40.85
2023-02-27T03:19:17.013Z,41.61
2023-02-27T03:21:49.923Z,40.04
2023-02-27T03:24:28.520Z,38.66
2023-02-27T03:27:01.309Z,39.46
2023-02-27T03:29:42.945Z,39.14
2023-02-27T03:32:18.878Z,39.80
2023-02-27T03:34:47.124Z,40.71
2023-02-27T03:37:22.200Z,41.44
2023-02-27T03:39:53.168Z,42.02
2023-02-27T03:42:26.509Z,41.21
2023-02-27T03:45:04.642Z,40.84
2023-02-27T03:47:32.866Z,39.64
2023-02-27T03:50:00.902Z,41.85
2023-02-27T03:52:30.160Z,41.02
2023-02-27T03:55:14.281Z,39.21
2023-02-27T03:57:42.704Z,41.24
2023-02-27T04:00:13.690Z,39.13
2023-02-27T04:02:42.188Z,37.91
2023-02-27T04:05:10.266Z,38.81
2023-02-27T04:08:02.838Z,39.21
2023-02-27T04:10:59.516Z,38.67
2023-02-27T04:14:12.443Z,37.71
2023-02-27T04:16:52.417Z,38.60
2023-02-27T04:19:25.899Z,38.12
2023-02-27T04:22:05.509Z,39.40
2023-02-27T04:24:39.674Z,39.45
2023-02-27T04:27:35.423Z,39.42
2023-02-27T04:30:10.744Z,39.14
2023-02-27T04:32:45.132Z,39.33
2023-02-27T04:35:17.916Z,40.20
2023-02-27T04:37:59.791Z,40.09
2023-02-27T04:40:34.724Z,37.79
2023-02-27T04:43:04.176Z,39.72
2023-02-27T04:45:33.598Z,39.31
2023-02-27T04:48:21.969Z,39.20
2023-02-27T04:51:05.373Z,39.91
2023-02-27T04:53:38.918Z,39.48
2023-02-27T04:56:14.239Z,39.46
2023-02-27T04:58:47.171Z,39.58
2023-02-27T05:01:18.848Z,40.26
2023-02-27T05:03:48.773Z,39.96
2023-02-27T05:06:18.134Z,40.35
2023-02-27T05:09:06.895Z,40.51
2023-02-27T05:11:39.965Z,40.14
2023-02-27T05:14:14.357Z,42.25
2023-02-27T05:16:48.249Z,41.92
2023-02-27T05:22:05.300Z,40.80
2023-02-27T05:24:34.098Z,40.77
2023-02-27T05:27:06.574Z,40.20
2023-02-27T05:29:42.941Z,41.45
2023-02-27T05:32:32.371Z,38.95
2023-02-27T05:35:18.735Z,38.89
2023-02-27T05:37:51.353Z,39.85
2023-02-27T05:40:39.821Z,39.79
2023-02-27T05:43:13.250Z,39.47
2023-02-27T05:45:43.254Z,38.93
2023-02-27T05:48:30.779Z,39.29
2023-02-27T05:50:59.376Z,39.60
2023-02-27T05:53:30.811Z,38.45
2023-02-27T05:55:59.805Z,38.61
2023-02-27T06:01:33.428Z,39.61
2023-02-27T06:04:01.118Z,40.19
2023-02-27T06:06:30.417Z,40.83
2023-02-27T06:08:57.964Z,40.14
2023-02-27T06:11:25.871Z,40.52
2023-02-27T06:13:53.268Z,40.74
2023-02-27T06:16:20.907Z,40.54
2023-02-27T06:18:48.644Z,42.06
2023-02-27T06:21:16.351Z,43.28
2023-02-27T06:23:43.718Z,43.18
2023-02-27T06:26:14.260Z,43.69
2023-02-27T06:28:42.562Z,43.90
2023-02-27T06:31:10.113Z,41.82
2023-02-27T06:33:37.882Z,41.98
2023-02-27T06:36:05.679Z,42.82
2023-02-27T06:38:34.001Z,42.24
2023-02-27T06:41:02.544Z,41.23
2023-02-27T06:43:30.394Z,41.50
2023-02-27T06:45:58.031Z,41.28
2023-02-27T06:48:25.944Z,38.50
2023-02-27T06:50:54.112Z,38.97
2023-02-27T06:53:22.536Z,39.13
2023-02-27T06:55:50.476Z,38.94
2023-02-27T06:58:18.643Z,39.14
2023-02-27T07:00:48.178Z,38.71
2023-02-27T07:03:16.092Z,36.77
2023-02-27T07:05:43.883Z,35.25
2023-02-27T07:08:11.509Z,35.75
2023-02-27T07:10:40.071Z,36.88
2023-02-27T07:13:08.631Z,35.57
2023-02-27T07:15:36.125Z,35.76
2023-02-27T07:18:04.043Z,35.24
2023-02-27T07:20:31.719Z,34.83
2023-02-27T07:22:59.124Z,34.90
2023-02-27T07:25:28.310Z,35.53
2023-02-27T07:27:56.082Z,35.28
2023-02-27T07:30:23.980Z,35.28
2023-02-27T07:32:51.846Z,34.48
2023-02-27T07:35:19.569Z,34.30
2023-02-27T07:37:47.909Z,34.81
2023-02-27T07:40:16.191Z,34.17
2023-02-27T07:42:43.785Z,33.17
2023-02-27T07:45:11.492Z,35.10
2023-02-27T07:47:39.326Z,36.48
2023-02-27T07:50:07.055Z,33.54
2023-02-27T07:52:34.568Z,33.82
2023-02-27T07:55:02.299Z,32.80
2023-02-27T07:57:29.950Z,33.48
2023-02-27T07:59:57.325Z,34.88
2023-02-27T08:02:25.185Z,33.81
2023-02-27T08:04:52.974Z,33.54
2023-02-27T08:07:20.864Z,34.48
2023-02-27T08:09:48.370Z,34.26
2023-02-27T08:12:16.005Z,35.30
2023-02-27T08:14:43.448Z,34.73
2023-02-27T08:17:10.859Z,35.37
2023-02-27T08:19:38.620Z,34.60
2023-02-27T08:22:06.007Z,35.20
2023-02-27T08:24:33.650Z,36.00
2023-02-27T08:27:01.524Z,35.93
2023-02-27T08:29:30.892Z,35.34
2023-02-27T08:31:58.766Z,35.25
2023-02-27T08:34:26.746Z,34.89
2023-02-27T08:36:54.529Z,35.19
2023-02-27T08:39:24.288Z,34.59
2023-02-27T08:41:52.835Z,35.45
2023-02-27T08:44:20.984Z,35.60
2023-02-27T08:46:48.414Z,35.29
2023-02-27T08:49:16.514Z,34.29
2023-02-27T08:51:44.043Z,35.51
2023-02-27T08:54:11.576Z,35.63
2023-02-27T08:56:39.424Z,36.01
2023-02-27T08:59:07.079Z,35.87
2023-02-27T09:01:34.804Z,35.65
2023-02-27T09:04:04.033Z,35.63
2023-02-27T09:06:32.286Z,35.75
2023-02-27T09:09:00.109Z,35.00
2023-02-27T09:11:28.627Z,35.47
2023-02-27T09:13:57.417Z,35.56
2023-02-27T09:16:25.555Z,34.05
2023-02-27T09:18:54.095Z,34.99
2023-02-27T09:21:23.691Z,35.14
2023-02-27T09:23:52.356Z,34.03
2023-02-27T09:26:20.939Z,37.08
2023-02-27T09:28:49.637Z,35.35
2023-02-27T09:31:17.846Z,35.57
2023-02-27T09:33:45.684Z,35.16
2023-02-27T09:36:13.269Z,34.95
2023-02-27T09:38:41.491Z,34.88
2023-02-27T09:41:25.633Z,36.04
2023-02-27T09:43:53.555Z,35.48
2023-02-27T09:46:22.959Z,36.30
2023-02-27T09:48:53.262Z,36.00
2023-02-27T09:51:21.424Z,35.42
2023-02-27T09:53:50.484Z,35.69
2023-02-27T09:56:36.680Z,34.65
2023-02-27T09:59:16.535Z,35.74
2023-02-27T10:01:48.759Z,34.79
2023-02-27T10:04:45.264Z,35.41
2023-02-27T10:07:25.941Z,34.55
2023-02-27T10:10:08.196Z,33.36
2023-02-27T10:12:50.721Z,35.29
2023-02-27T10:15:31.143Z,34.00
2023-02-27T10:21:15.549Z,35.68
2023-02-27T10:24:07.856Z,34.90
2023-02-27T10:26:39.933Z,34.67
2023-02-27T10:29:16.304Z,35.14
2023-02-27T10:31:47.656Z,34.12
2023-02-27T10:34:16.492Z,34.56
2023-02-27T10:36:46.078Z,35.08
2023-02-27T10:39:16.863Z,33.99
2023-02-27T10:41:45.544Z,33.92
2023-02-27T10:44:18.677Z,34.62
2023-02-27T10:46:46.691Z,34.43
2023-02-27T10:49:20.071Z,33.83
2023-02-27T10:52:05.216Z,33.53
2023-02-27T10:54:32.766Z,34.29
2023-02-27T10:57:02.475Z,33.91
2023-02-27T10:59:34.165Z,34.17
2023-02-27T11:02:06.746Z,33.30
2023-02-27T11:04:38.934Z,33.16
2023-02-27T11:09:37.278Z,34.49
2023-02-27T11:12:27.794Z,33.92
2023-02-27T11:14:58.256Z,32.29
2023-02-27T11:17:29.080Z,33.05
2023-02-27T11:19:58.634Z,34.40
2023-02-27T11:22:31.942Z,35.76
2023-02-27T11:25:22.632Z,32.45
2023-02-27T11:27:52.299Z,33.79
2023-02-27T11:30:22.708Z,32.65
2023-02-27T11:32:51.460Z,32.20
2023-02-27T11:35:34.965Z,31.28
2023-02-27T11:38:08.269Z,32.44
2023-02-27T11:40:50.189Z,33.49
2023-02-27T11:43:29.977Z,35.19
2023-02-27T11:46:04.168Z,32.09
2023-02-27T11:48:51.640Z,33.19
2023-02-27T11:54:57.741Z,29.61
2023-02-27T11:57:34.924Z,30.29
2023-02-27T12:00:33.313Z,29.50
2023-02-27T12:03:21.598Z,30.92
2023-02-27T12:05:58.223Z,30.03
2023-02-27T12:08:34.801Z,30.93
2023-02-27T12:11:14.656Z,30.01
2023-02-27T12:13:47.120Z,32.11
2023-02-27T12:16:22.764Z,33.13
2023-02-27T12:18:54.651Z,30.82
2023-02-27T12:21:28.062Z,30.23
2023-02-27T12:24:00.777Z,31.05
2023-02-27T12:26:33.420Z,30.38
2023-02-27T12:29:42.668Z,29.40
2023-02-27T12:32:55.133Z,29.21
2023-02-27T12:35:30.180Z,29.29
2023-02-27T12:37:58.353Z,29.24
2023-02-27T12:40:51.215Z,29.46
2023-02-27T12:43:31.598Z,31.73
2023-02-27T12:46:14.056Z,29.41
2023-02-27T12:49:02.520Z,28.95
2023-02-27T12:51:49.985Z,29.32
2023-02-27T12:54:33.828Z,30.17
2023-02-27T12:57:25.772Z,31.41
2023-02-27T13:00:15.245Z,31.37
2023-02-27T13:03:16.723Z,31.37
2023-02-27T13:05:59.388Z,32.74
2023-02-27T13:09:18.240Z,29.56
2023-02-27T13:11:54.323Z,28.70
2023-02-27T13:14:47.791Z,29.69
2023-02-27T13:17:25.339Z,28.27
2023-02-27T13:20:01.264Z,29.11
2023-02-27T13:22:43.864Z,30.35
2023-02-27T13:25:15.796Z,30.03
2023-02-27T13:27:56.539Z,29.02
2023-02-27T13:30:32.617Z,30.16
2023-02-27T13:33:11.725Z,29.51
2023-02-27T13:36:05.389Z,29.41
2023-02-27T13:38:52.853Z,29.45
2023-02-27T13:41:20.839Z,30.70
2023-02-27T13:46:34.322Z,29.34
2023-02-27T13:49:08.023Z,29.35
2023-02-27T13:51:36.725Z,31.33
2023-02-27T14:02:25.618Z,29.49
2023-02-27T14:04:58.424Z,30.64
2023-02-27T14:10:11.824Z,31.75
2023-02-27T14:12:45.907Z,29.60
2023-02-27T14:15:22.866Z,29.50
2023-02-27T14:18:09.642Z,30.48
2023-02-27T14:20:41.969Z,31.45
2023-02-27T14:23:15.997Z,31.30
2023-02-27T14:25:49.955Z,33.02
2023-02-27T14:28:36.458Z,32.87
2023-02-27T14:31:13.744Z,32.39
2023-02-27T14:33:46.973Z,31.66
2023-02-27T14:50:34.378Z,31.33
2023-02-27T14:53:02.048Z,30.76
2023-02-27T14:55:32.303Z,31.01
2023-02-27T14:58:17.406Z,32.04
2023-02-27T15:00:58.614Z,33.71
2023-02-27T15:03:29.696Z,32.63
2023-02-27T15:06:01.115Z,33.40
2023-02-27T15:08:33.803Z,34.52
2023-02-27T15:11:02.569Z,31.18
2023-02-27T15:13:38.499Z,31.81
2023-02-27T15:19:28.498Z,31.75
2023-02-27T15:22:03.445Z,31.04
2023-02-27T15:24:49.691Z,31.69
2023-02-27T15:27:20.697Z,31.37
2023-02-27T15:29:56.633Z,31.34
2023-02-27T15:32:30.341Z,31.72
2023-02-27T15:35:01.008Z,31.52
2023-02-27T15:37:33.677Z,33.23
2023-02-27T15:42:37.435Z,31.39
2023-02-27T15:50:16.459Z,32.02
2023-02-27T15:55:43.565Z,31.90
2023-02-27T16:00:05.284Z,33.49
2023-02-27T16:02:46.223Z,32.23
2023-02-27T16:10:41.734Z,32.81
2023-02-27T16:13:28.103Z,33.16
2023-02-27T16:16:03.265Z,34.19
2023-02-27T16:18:35.461Z,36.08
2023-02-27T16:24:19.883Z,35.97
2023-02-27T16:26:51.878Z,35.97
2023-02-27T16:32:04.563Z,36.28
2023-02-27T16:34:45.045Z,36.28
2023-02-27T16:37:19.862Z,37.25
2023-02-27T16:44:56.434Z,37.73
2023-02-27T16:47:25.800Z,37.69
2023-02-27T16:49:53.488Z,38.05
2023-02-27T16:52:22.762Z,38.17
2023-02-27T16:57:35.619Z,39.92
2023-02-27T17:00:07.770Z,39.78
2023-02-27T17:02:35.312Z,39.80
2023-02-27T17:05:03.110Z,40.39
2023-02-27T17:07:30.633Z,40.51
2023-02-27T17:09:58.177Z,41.33
2023-02-27T17:12:26.167Z,41.90
2023-02-27T17:14:53.619Z,40.37
2023-02-27T17:17:22.047Z,39.97
2023-02-27T17:19:49.858Z,40.08
2023-02-27T17:22:17.725Z,40.42
2023-02-27T17:24:45.153Z,40.02
2023-02-27T17:27:13.053Z,39.17
2023-02-27T17:29:40.541Z,39.26
2023-02-27T17:32:08.130Z,39.39
2023-02-27T17:34:35.938Z,39.99
2023-02-27T17:37:03.450Z,41.42
2023-02-27T17:39:31.084Z,39.93
2023-02-27T17:41:58.919Z,39.29
2023-02-27T17:44:27.042Z,39.97
2023-02-27T17:46:54.570Z,39.89
2023-02-27T17:49:22.481Z,39.88
2023-02-27T17:51:50.196Z,40.67
2023-02-27T17:54:17.804Z,40.60
2023-02-27T17:56:45.953Z,40.59
2023-02-27T17:59:13.441Z,40.50
2023-02-27T18:01:41.019Z,41.17
2023-02-27T18:04:11.339Z,41.18
2023-02-27T18:06:39.199Z,41.33
2023-02-27T18:09:06.694Z,42.41
2023-02-27T18:11:37.520Z,42.24
2023-02-27T18:14:05.355Z,42.04
2023-02-27T18:16:33.048Z,41.71
2023-02-27T18:19:05.511Z,41.40
2023-02-27T18:21:33.765Z,41.82
2023-02-27T18:24:01.583Z,41.94
2023-02-27T18:26:31.399Z,42.12
2023-02-27T18:29:01.395Z,41.94
2023-02-27T18:31:31.829Z,42.61
2023-02-27T18:34:00.408Z,43.19
2023-02-27T18:36:29.304Z,42.90
2023-02-27T18:38:59.673Z,43.04
2023-02-27T18:41:29.599Z,43.38
2023-02-27T18:43:58.878Z,43.84
2023-02-27T18:46:27.543Z,44.19
2023-02-27T18:48:55.443Z,44.32
2023-02-27T18:51:23.373Z,44.41
2023-02-27T18:53:51.156Z,44.30
2023-02-27T18:56:22.811Z,43.50
2023-02-27T18:58:51.588Z,41.97
2023-02-27T19:01:21.394Z,42.07
2023-02-27T19:03:50.043Z,41.34
2023-02-27T19:06:18.213Z,40.87
2023-02-27T19:08:46.078Z,41.80
2023-02-27T19:11:33.137Z,42.48
2023-02-27T19:14:05.555Z,42.01
2023-02-27T19:16:33.298Z,40.92
2023-02-27T19:19:04.874Z,40.57
2023-02-27T19:21:32.893Z,41.55
2023-02-27T19:24:01.246Z,42.36
2023-02-27T19:26:29.624Z,41.62
2023-02-27T19:28:57.382Z,41.10
2023-02-27T19:31:25.442Z,40.56
2023-02-27T19:33:53.348Z,39.72
2023-02-27T19:36:22.730Z,39.98
2023-02-27T19:38:50.429Z,40.97
2023-02-27T19:41:19.081Z,40.63
2023-02-27T19:43:47.259Z,40.06
2023-02-27T19:46:21.328Z,39.75
2023-02-27T19:56:21.097Z,40.07
2023-02-27T19:58:53.972Z,40.07
2023-02-27T20:04:03.592Z,41.18
2023-02-27T20:06:33.430Z,41.18
2023-02-27T20:16:47.328Z,40.35
2023-02-27T20:19:17.061Z,40.38
2023-02-27T20:21:45.544Z,40.44
2023-02-27T20:24:14.598Z,41.43
2023-02-27T20:26:46.267Z,40.57
2023-02-27T20:29:19.513Z,40.15
2023-02-27T20:31:49.433Z,40.65
2023-02-27T20:34:22.008Z,41.38
2023-02-27T20:36:52.867Z,40.67
2023-02-27T20:39:21.243Z,40.97
2023-02-27T20:41:49.034Z,41.19
2023-02-27T20:44:16.501Z,42.01
2023-02-27T20:46:44.696Z,40.72
2023-02-27T20:49:15.705Z,41.53
2023-02-27T20:51:44.040Z,41.47
2023-02-27T20:54:20.519Z,41.01
2023-02-27T20:56:51.923Z,41.68
2023-02-27T20:59:21.365Z,41.41
2023-02-27T21:01:51.945Z,43.05
2023-02-27T21:04:43.021Z,42.52
2023-02-27T21:07:12.825Z,42.75
2023-02-27T21:09:40.681Z,42.03
2023-02-27T21:12:09.379Z,41.07
2023-02-27T21:14:37.228Z,41.76
2023-02-27T21:17:05.470Z,42.83
2023-02-27T21:19:33.312Z,42.62
2023-02-27T21:22:00.876Z,42.51
2023-02-27T21:24:32.173Z,42.10
2023-02-27T21:26:59.692Z,42.14
2023-02-27T21:29:27.179Z,42.28
2023-02-27T21:31:55.353Z,41.99
2023-02-27T21:34:25.160Z,42.22
2023-02-27T21:36:52.743Z,42.10
2023-02-27T21:39:23.304Z,42.47
2023-02-27T21:41:50.951Z,42.27
2023-02-27T21:44:20.469Z,42.40
2023-02-27T21:46:48.308Z,42.60
2023-02-27T21:49:18.397Z,43.26
2023-02-27T21:51:47.084Z,43.68
2023-02-27T21:54:16.167Z,43.81
2023-02-27T21:56:44.601Z,43.93
2023-02-27T21:59:12.349Z,42.58
2023-02-27T22:01:40.324Z,42.46
2023-02-27T22:04:08.133Z,42.11
2023-02-27T22:06:35.788Z,43.21
2023-02-27T22:09:05.062Z,42.58
2023-02-27T22:11:34.278Z,41.73
2023-02-27T22:14:03.215Z,42.82
2023-02-27T22:16:30.704Z,42.47
2023-02-27T22:18:58.437Z,43.84
2023-02-27T22:21:27.455Z,41.48
2023-02-27T22:23:56.958Z,41.32
2023-02-27T22:26:28.245Z,41.00
2023-02-27T22:28:57.176Z,41.51
2023-02-27T22:31:36.917Z,41.50
2023-02-27T22:34:07.468Z,41.60
2023-02-27T22:36:35.964Z,42.05
2023-02-27T22:39:07.446Z,42.63
2023-02-27T22:41:38.110Z,42.65
2023-02-27T22:44:06.330Z,42.19
2023-02-27T22:46:39.583Z,42.10
2023-02-27T22:49:10.507Z,42.10
2023-02-27T22:51:38.418Z,42.29
2023-02-27T22:54:06.652Z,42.16
2023-02-27T22:56:36.530Z,40.75
2023-02-27T22:59:05.247Z,41.95
2023-02-27T23:01:34.407Z,43.29
2023-02-27T23:04:07.907Z,43.85
2023-02-27T23:06:38.935Z,43.76
2023-02-27T23:09:08.677Z,43.49
2023-02-27T23:11:36.222Z,43.55
2023-02-27T23:14:04.138Z,43.84
2023-02-27T23:16:32.084Z,44.25
2023-02-27T23:19:00.332Z,44.66
2023-02-27T23:21:34.461Z,45.17
2023-02-27T23:24:06.891Z,45.17
2023-02-27T23:26:38.628Z,44.54
2023-02-27T23:29:06.963Z,45.16
2023-02-27T23:31:36.104Z,44.92
2023-02-27T23:34:05.885Z,44.79
2023-02-27T23:36:35.219Z,43.25
2023-02-27T23:39:04.300Z,42.42
2023-02-27T23:41:32.603Z,43.04
2023-02-27T23:44:01.580Z,44.49
2023-02-27T23:46:30.821Z,46.41
2023-02-27T23:49:02.004Z,46.40
2023-02-27T23:51:30.777Z,47.06
2023-02-27T23:53:59.002Z,46.99
2023-02-27T23:56:29.712Z,46.61
2023-02-27T23:59:00.144Z,46.62
